This is the latest recevied weather packets stored in our database for station/object EA4BHK-10. If no packets are shown the sender has not sent any weather packets the latest 10 day(s).
| Time | Temp. | Humidity | Pressure | Rain* | Wind** | Luminosity | Snow |
|---|---|---|---|---|---|---|---|
| 1777764069 | 11.67° C | 100% | 1019.3 hPa | - | - | - | - |
| 1777763169 | 11.67° C | 100% | 1019.4 hPa | - | - | - | - |
| 1777754053 | 92.78° C | 100% | 0 hPa | - | - | - | - |
| 1777753125 | 12.78° C | 94% | 1019.3 hPa | - | - | - | - |
| 1777752217 | 13.89° C | 74% | 1017.6 hPa | - | - | - | - |
| 1777751314 | 13.89° C | 73% | 1017.5 hPa | - | - | - | - |
| 1777750414 | 13.89° C | 73% | 1017.3 hPa | - | - | - | - |
| 1777749514 | 13.89° C | 73% | 1017.2 hPa | - | - | - | - |
| 1777748614 | 13.89° C | 73% | 1017.1 hPa | - | - | - | - |
| 1777747721 | 14.44° C | 72% | 1016.9 hPa | - | - | - | - |
| 1777746815 | 14.44° C | 72% | 1016.8 hPa | - | - | - | - |
| 1777745914 | 14.44° C | 72% | 1016.9 hPa | - | - | - | - |
| 1777744123 | 14.44° C | 76% | 1016.8 hPa | - | - | - | - |
| 1777743227 | 15° C | 73% | 1016.6 hPa | - | - | - | - |
| 1777742326 | 16.11° C | 59% | 1016.6 hPa | - | - | - | - |
| 1777741422 | 16.67° C | 56% | 1016.5 hPa | - | - | - | - |
| 1777740522 | 16.67° C | 55% | 1016.3 hPa | - | - | - | - |
| 1777739622 | 16.67° C | 54% | 1016.3 hPa | - | - | - | - |
| 1777738722 | 17.22° C | 53% | 1016.3 hPa | - | - | - | - |
| 1777737822 | 17.22° C | 52% | 1016.3 hPa | - | - | - | - |
| 1777736922 | 17.22° C | 52% | 1016.3 hPa | - | - | - | - |
| 1777736022 | 17.22° C | 53% | 1016.5 hPa | - | - | - | - |
| 1777735122 | 17.22° C | 52% | 1016.7 hPa | - | - | - | - |
| 1777734222 | 17.78° C | 53% | 1016.8 hPa | - | - | - | - |
| 1777733322 | 17.22° C | 53% | 1017.2 hPa | - | - | - | - |
* Rain since midnight (hover to see other rain measurements)
** Current wind speed in m/s (hover to see current wind gust speed)